Susan Ann — WCY5700 — position and weather

sailwx.info

Track history (hours):
 
Tides and Currents Weather Stations Pressure Air Temp Water Temp Dewpoint Dewpoint Depression Visibility Wind Speed Wind Dir Waves Ship Positions

Susan Ann

Owner: CROSS SOUND FERRY SERVICES INC, NEW LONDON, CT. More information available from US FCC via Universal Licensing System and Coast Guard Vessel Documentation Center.

Last reported at 2015-Feb-02 01:19 UTC. Time now 2015-Feb-02 01:47 UTC.
Position N 41°09' W 072°14'.

Length 72 m; draft 4 m.

Type: Passenger vessel. MMSI: 367354350.

Date/timePositionNaut miles runAvg speedWind from/ knotsBaromVisibWave heightAir tempDewpointWater temp
2015-Feb-02 01:19N 41°09' W 072°14'7 9.2
2015-Feb-02 00:33N 41°15' W 072°09'7 6.9
2015-Feb-01 23:33N 41°21' W 072°06'9 8.9
2015-Feb-01 22:33N 41°13' W 072°10'5 5.1
2015-Feb-01 21:33N 41°09' W 072°14'8 8.2
2015-Feb-01 20:33N 41°16' W 072°07'3 1.4
2015-Feb-01 18:33N 41°13' W 072°10'5 5.2
2015-Feb-01 17:30N 41°09' W 072°14'2 0.7
2015-Feb-01 14:33N 41°11' W 072°13'2 2.2
2015-Feb-01 13:33N 41°09' W 072°14'8 8.3
2015-Feb-01 12:33N 41°16' W 072°08'3 0.3
2015-Feb-01 00:33N 41°13' W 072°10'5 4.5
2015-Jan-31 23:28N 41°09' W 072°14'8 9.0
2015-Jan-31 22:33N 41°16' W 072°08'4 2.0
2015-Jan-31 20:30N 41°12' W 072°11'4 4.3
2015-Jan-31 19:33N 41°09' W 072°14'9 9.3
2015-Jan-31 18:33N 41°16' W 072°06'5 5.0
2015-Jan-31 17:34N 41°21' W 072°06'9 8.7
2015-Jan-31 16:33N 41°13' W 072°09'5 5.3
2015-Jan-31 15:33N 41°09' W 072°13'1111.3
2015-Jan-31 14:34N 41°18' W 072°05'1 0.8
2015-Jan-31 13:34N 41°17' W 072°05'1110.7
2015-Jan-31 12:34N 41°09' W 072°14'8 8.0
2015-Jan-31 11:33N 41°15' W 072°08'6 6.1
2015-Jan-31 10:33N 41°21' W 072°06'0 0.0
2015-Jan-31 01:34N 41°21' W 072°06'9 9.1
2015-Jan-31 00:33N 41°13' W 072°11'5 4.8
2015-Jan-30 23:33N 41°09' W 072°14'8 8.4
2015-Jan-30 22:34N 41°16' W 072°08'6 5.7
2015-Jan-30 21:33N 41°21' W 072°06'9 9.5
2015-Jan-30 20:33N 41°13' W 072°11'4 4.5
2015-Jan-30 19:34N 41°09' W 072°14'8 8.0
2015-Jan-30 18:34N 41°15' W 072°08'6 6.1
2015-Jan-30 17:33N 41°21' W 072°06'9 8.7
2015-Jan-30 16:33N 41°13' W 072°10'5 5.1
2015-Jan-30 15:33N 41°09' W 072°14'1111.2
2015-Jan-30 14:33N 41°18' W 072°05'0 0.3
2015-Jan-30 13:33N 41°18' W 072°05'1211.7
2015-Jan-30 12:34N 41°09' W 072°14'9 9.0
2015-Jan-30 11:34N 41°16' W 072°07'5 5.2
2015-Jan-30 10:33N 41°21' W 072°06'0 0.0
2015-Jan-30 01:20N 41°21' W 072°05'911.8
2015-Jan-30 00:34N 41°13' W 072°10'5 4.8
2015-Jan-29 23:33N 41°09' W 072°14'9 8.5
2015-Jan-29 22:33N 41°16' W 072°07'6 5.5
2015-Jan-29 21:33N 41°21' W 072°06'9 9.1
2015-Jan-29 20:33N 41°13' W 072°11'5 4.8
2015-Jan-29 19:33N 41°09' W 072°14'8 8.4
2015-Jan-29 18:33N 41°16' W 072°08'6 5.7
2015-Jan-29 17:33N 41°21' W 072°06'1010.2
2015-Jan-29 16:33N 41°12' W 072°12'4 3.7
2015-Jan-29 15:34N 41°09' W 072°14'1211.7
2015-Jan-29 14:33N 41°19' W 072°05'2 1.8
2015-Jan-29 13:34N 41°17' W 072°06'1010.1
2015-Jan-29 12:33N 41°09' W 072°14'9 8.9
2015-Jan-29 11:33N 41°16' W 072°07'5 5.3
2015-Jan-29 10:33N 41°21' W 072°06'2 0.2
2015-Jan-29 02:33N 41°19' W 072°05'1212.4
2015-Jan-29 01:33N 41°09' W 072°14'8 8.0
2015-Jan-29 00:34N 41°15' W 072°08'6 6.1
2015-Jan-28 23:33N 41°21' W 072°06'9 9.0
2015-Jan-28 22:33N 41°13' W 072°10'5 4.9
2015-Jan-28 21:33N 41°09' W 072°14'9 8.6
2015-Jan-28 20:33N 41°16' W 072°07'6 5.5
2015-Jan-28 19:33N 41°21' W 072°06'9 8.8
2015-Jan-28 18:33N 41°13' W 072°10'5 5.1
2015-Jan-28 17:33N 41°09' W 072°14'8 8.2
2015-Jan-28 16:33N 41°16' W 072°08'5 5.4
2015-Jan-28 15:33N 41°21' W 072°05'1211.9
2015-Jan-28 14:34N 41°11' W 072°13'1 1.5
2015-Jan-28 13:34N 41°12' W 072°12'1110.8
2015-Jan-28 12:33N 41°21' W 072°06'0 0.0
2015-Jan-26 21:33N 41°21' W 072°06'9 9.1
2015-Jan-26 20:33N 41°13' W 072°11'5 4.7
2015-Jan-26 19:33N 41°09' W 072°14'10 9.6
2015-Jan-26 18:33N 41°17' W 072°06'5 4.7
2015-Jan-26 17:33N 41°21' W 072°06'9 8.9
2015-Jan-26 16:33N 41°13' W 072°10'5 5.1
2015-Jan-26 15:33N 41°09' W 072°14'1211.7
2015-Jan-26 14:33N 41°19' W 072°05'1 1.4
2015-Jan-26 13:33N 41°17' W 072°06'1010.3
2015-Jan-26 12:34N 41°09' W 072°14'9 8.5
2015-Jan-26 11:33N 41°16' W 072°07'6 5.8
2015-Jan-26 10:33N 41°21' W 072°06'0 0.0
2015-Jan-26 01:22N 41°21' W 072°06'910.7
2015-Jan-26 00:32N 41°13' W 072°10'5 5.3
2015-Jan-25 23:33N 41°09' W 072°14'8 8.1
2015-Jan-25 22:33N 41°16' W 072°08'6 6.0
2015-Jan-25 21:33N 41°21' W 072°06'9 8.8
2015-Jan-25 20:33N 41°13' W 072°10'5 5.2
2015-Jan-25 19:33N 41°09' W 072°14'8 8.3
2015-Jan-25 18:33N 41°16' W 072°07'6 5.9
2015-Jan-25 17:33N 41°21' W 072°06'9 8.7
2015-Jan-25 16:33N 41°13' W 072°10'5 5.0
2015-Jan-25 15:34N 41°09' W 072°14'1111.2
2015-Jan-25 14:33N 41°18' W 072°05'1 0.8
2015-Jan-25 13:33N 41°18' W 072°05'1110.8
2015-Jan-25 12:33N 41°09' W 072°14'9 8.5
2015-Jan-25 11:33N 41°16' W 072°07'6 5.8
2015-Jan-25 10:33N 41°21' W 072°06'0 0.0
2015-Jan-25 01:17N 41°21' W 072°05'911.9
2015-Jan-25 00:34N 41°13' W 072°10'5 5.2
2015-Jan-24 23:33N 41°09' W 072°14'8 8.0
2015-Jan-24 22:33N 41°15' W 072°08'6 6.1
2015-Jan-24 21:33N 41°21' W 072°06'9 9.2
2015-Jan-24 20:33N 41°13' W 072°10'5 4.7
2015-Jan-24 19:33N 41°09' W 072°14'8 8.4
2015-Jan-24 18:33N 41°16' W 072°07'6 5.8
2015-Jan-24 17:33N 41°21' W 072°06'9 9.4
2015-Jan-24 16:33N 41°13' W 072°11'4 4.4
2015-Jan-24 15:33N 41°09' W 072°14'1111.4
2015-Jan-24 14:33N 41°18' W 072°05'5 4.0
2015-Jan-24 13:12N 41°14' W 072°09'4 4.1
2015-Jan-24 12:07N 41°11' W 072°13'712.0
2015-Jan-24 11:33N 41°16' W 072°07'6 0.6
2015-Jan-24 01:33N 41°21' W 072°06'1010.0
2015-Jan-24 00:33N 41°12' W 072°11'4 4.1
2015-Jan-23 23:33N 41°09' W 072°14'9 9.0
2015-Jan-23 22:33N 41°16' W 072°07'5 5.2
2015-Jan-23 21:34N 41°21' W 072°06'9 9.1
2015-Jan-23 20:33N 41°13' W 072°10'5 4.9
2015-Jan-23 19:33N 41°09' W 072°14'9 8.8
2015-Jan-23 18:33N 41°16' W 072°07'5 5.4
2015-Jan-23 17:33N 41°21' W 072°06'8 8.4
2015-Jan-23 16:33N 41°14' W 072°10'6 5.5
2015-Jan-23 15:33N 41°09' W 072°14'1111.4
2015-Jan-23 14:34N 41°18' W 072°05'0 0.3
2015-Jan-23 13:34N 41°19' W 072°05'1211.8
2015-Jan-23 12:33N 41°09' W 072°14'8 7.6
2015-Jan-23 11:33N 41°15' W 072°08'6 6.4
2015-Jan-23 10:33N 41°21' W 072°06'  
Track history (hours):
 
Tides and Currents Weather Stations Pressure Air Temp Water Temp Dewpoint Dewpoint Depression Visibility Wind Speed Wind Dir Waves Ship Positions

Susan Ann

Owner: CROSS SOUND FERRY SERVICES INC, NEW LONDON, CT. More information available from US FCC via Universal Licensing System and Coast Guard Vessel Documentation Center.

Last reported at 2015-Feb-02 01:19 UTC. Time now 2015-Feb-02 01:47 UTC.
Position N 41°09' W 072°14'.

Length 72 m; draft 4 m.

Type: Passenger vessel. MMSI: 367354350.

Date/timePositionNaut miles runAvg speedWind from/ knotsBaromVisibWave heightAir tempDewpointWater temp
2015-Feb-02 01:19N 41°09' W 072°14'7 9.2
2015-Feb-02 00:33N 41°15' W 072°09'7 6.9
2015-Feb-01 23:33N 41°21' W 072°06'9 8.9
2015-Feb-01 22:33N 41°13' W 072°10'5 5.1
2015-Feb-01 21:33N 41°09' W 072°14'8 8.2
2015-Feb-01 20:33N 41°16' W 072°07'3 1.4
2015-Feb-01 18:33N 41°13' W 072°10'5 5.2
2015-Feb-01 17:30N 41°09' W 072°14'2 0.7
2015-Feb-01 14:33N 41°11' W 072°13'2 2.2
2015-Feb-01 13:33N 41°09' W 072°14'8 8.3
2015-Feb-01 12:33N 41°16' W 072°08'3 0.3
2015-Feb-01 00:33N 41°13' W 072°10'5 4.5
2015-Jan-31 23:28N 41°09' W 072°14'8 9.0
2015-Jan-31 22:33N 41°16' W 072°08'4 2.0
2015-Jan-31 20:30N 41°12' W 072°11'4 4.3
2015-Jan-31 19:33N 41°09' W 072°14'9 9.3
2015-Jan-31 18:33N 41°16' W 072°06'5 5.0
2015-Jan-31 17:34N 41°21' W 072°06'9 8.7
2015-Jan-31 16:33N 41°13' W 072°09'5 5.3
2015-Jan-31 15:33N 41°09' W 072°13'1111.3
2015-Jan-31 14:34N 41°18' W 072°05'1 0.8
2015-Jan-31 13:34N 41°17' W 072°05'1110.7
2015-Jan-31 12:34N 41°09' W 072°14'8 8.0
2015-Jan-31 11:33N 41°15' W 072°08'6 6.1
2015-Jan-31 10:33N 41°21' W 072°06'0 0.0
2015-Jan-31 01:34N 41°21' W 072°06'9 9.1
2015-Jan-31 00:33N 41°13' W 072°11'5 4.8
2015-Jan-30 23:33N 41°09' W 072°14'8 8.4
2015-Jan-30 22:34N 41°16' W 072°08'6 5.7
2015-Jan-30 21:33N 41°21' W 072°06'9 9.5
2015-Jan-30 20:33N 41°13' W 072°11'4 4.5
2015-Jan-30 19:34N 41°09' W 072°14'8 8.0
2015-Jan-30 18:34N 41°15' W 072°08'6 6.1
2015-Jan-30 17:33N 41°21' W 072°06'9 8.7
2015-Jan-30 16:33N 41°13' W 072°10'5 5.1
2015-Jan-30 15:33N 41°09' W 072°14'1111.2
2015-Jan-30 14:33N 41°18' W 072°05'0 0.3
2015-Jan-30 13:33N 41°18' W 072°05'1211.7
2015-Jan-30 12:34N 41°09' W 072°14'9 9.0
2015-Jan-30 11:34N 41°16' W 072°07'5 5.2
2015-Jan-30 10:33N 41°21' W 072°06'0 0.0
2015-Jan-30 01:20N 41°21' W 072°05'911.8
2015-Jan-30 00:34N 41°13' W 072°10'5 4.8
2015-Jan-29 23:33N 41°09' W 072°14'9 8.5
2015-Jan-29 22:33N 41°16' W 072°07'6 5.5
2015-Jan-29 21:33N 41°21' W 072°06'9 9.1
2015-Jan-29 20:33N 41°13' W 072°11'5 4.8
2015-Jan-29 19:33N 41°09' W 072°14'8 8.4
2015-Jan-29 18:33N 41°16' W 072°08'6 5.7
2015-Jan-29 17:33N 41°21' W 072°06'1010.2
2015-Jan-29 16:33N 41°12' W 072°12'4 3.7
2015-Jan-29 15:34N 41°09' W 072°14'1211.7
2015-Jan-29 14:33N 41°19' W 072°05'2 1.8
2015-Jan-29 13:34N 41°17' W 072°06'1010.1
2015-Jan-29 12:33N 41°09' W 072°14'9 8.9
2015-Jan-29 11:33N 41°16' W 072°07'5 5.3
2015-Jan-29 10:33N 41°21' W 072°06'2 0.2
2015-Jan-29 02:33N 41°19' W 072°05'1212.4
2015-Jan-29 01:33N 41°09' W 072°14'8 8.0
2015-Jan-29 00:34N 41°15' W 072°08'6 6.1
2015-Jan-28 23:33N 41°21' W 072°06'9 9.0
2015-Jan-28 22:33N 41°13' W 072°10'5 4.9
2015-Jan-28 21:33N 41°09' W 072°14'9 8.6
2015-Jan-28 20:33N 41°16' W 072°07'6 5.5
2015-Jan-28 19:33N 41°21' W 072°06'9 8.8
2015-Jan-28 18:33N 41°13' W 072°10'5 5.1
2015-Jan-28 17:33N 41°09' W 072°14'8 8.2
2015-Jan-28 16:33N 41°16' W 072°08'5 5.4
2015-Jan-28 15:33N 41°21' W 072°05'1211.9
2015-Jan-28 14:34N 41°11' W 072°13'1 1.5
2015-Jan-28 13:34N 41°12' W 072°12'1110.8
2015-Jan-28 12:33N 41°21' W 072°06'0 0.0
2015-Jan-26 21:33N 41°21' W 072°06'9 9.1
2015-Jan-26 20:33N 41°13' W 072°11'5 4.7
2015-Jan-26 19:33N 41°09' W 072°14'10 9.6
2015-Jan-26 18:33N 41°17' W 072°06'5 4.7
2015-Jan-26 17:33N 41°21' W 072°06'9 8.9
2015-Jan-26 16:33N 41°13' W 072°10'5 5.1
2015-Jan-26 15:33N 41°09' W 072°14'1211.7
2015-Jan-26 14:33N 41°19' W 072°05'1 1.4
2015-Jan-26 13:33N 41°17' W 072°06'1010.3
2015-Jan-26 12:34N 41°09' W 072°14'9 8.5
2015-Jan-26 11:33N 41°16' W 072°07'6 5.8
2015-Jan-26 10:33N 41°21' W 072°06'0 0.0
2015-Jan-26 01:22N 41°21' W 072°06'910.7
2015-Jan-26 00:32N 41°13' W 072°10'5 5.3
2015-Jan-25 23:33N 41°09' W 072°14'8 8.1
2015-Jan-25 22:33N 41°16' W 072°08'6 6.0
2015-Jan-25 21:33N 41°21' W 072°06'9 8.8
2015-Jan-25 20:33N 41°13' W 072°10'5 5.2
2015-Jan-25 19:33N 41°09' W 072°14'8 8.3
2015-Jan-25 18:33N 41°16' W 072°07'6 5.9
2015-Jan-25 17:33N 41°21' W 072°06'9 8.7
2015-Jan-25 16:33N 41°13' W 072°10'5 5.0
2015-Jan-25 15:34N 41°09' W 072°14'1111.2
2015-Jan-25 14:33N 41°18' W 072°05'1 0.8
2015-Jan-25 13:33N 41°18' W 072°05'1110.8
2015-Jan-25 12:33N 41°09' W 072°14'9 8.5
2015-Jan-25 11:33N 41°16' W 072°07'6 5.8
2015-Jan-25 10:33N 41°21' W 072°06'0 0.0
2015-Jan-25 01:17N 41°21' W 072°05'911.9
2015-Jan-25 00:34N 41°13' W 072°10'5 5.2
2015-Jan-24 23:33N 41°09' W 072°14'8 8.0
2015-Jan-24 22:33N 41°15' W 072°08'6 6.1
2015-Jan-24 21:33N 41°21' W 072°06'9 9.2
2015-Jan-24 20:33N 41°13' W 072°10'5 4.7
2015-Jan-24 19:33N 41°09' W 072°14'8 8.4
2015-Jan-24 18:33N 41°16' W 072°07'6 5.8
2015-Jan-24 17:33N 41°21' W 072°06'9 9.4
2015-Jan-24 16:33N 41°13' W 072°11'4 4.4
2015-Jan-24 15:33N 41°09' W 072°14'1111.4
2015-Jan-24 14:33N 41°18' W 072°05'5 4.0
2015-Jan-24 13:12N 41°14' W 072°09'4 4.1
2015-Jan-24 12:07N 41°11' W 072°13'712.0
2015-Jan-24 11:33N 41°16' W 072°07'6 0.6
2015-Jan-24 01:33N 41°21' W 072°06'1010.0
2015-Jan-24 00:33N 41°12' W 072°11'4 4.1
2015-Jan-23 23:33N 41°09' W 072°14'9 9.0
2015-Jan-23 22:33N 41°16' W 072°07'5 5.2
2015-Jan-23 21:34N 41°21' W 072°06'9 9.1
2015-Jan-23 20:33N 41°13' W 072°10'5 4.9
2015-Jan-23 19:33N 41°09' W 072°14'9 8.8
2015-Jan-23 18:33N 41°16' W 072°07'5 5.4
2015-Jan-23 17:33N 41°21' W 072°06'8 8.4
2015-Jan-23 16:33N 41°14' W 072°10'6 5.5
2015-Jan-23 15:33N 41°09' W 072°14'1111.4
2015-Jan-23 14:34N 41°18' W 072°05'0 0.3
2015-Jan-23 13:34N 41°19' W 072°05'1211.8
2015-Jan-23 12:33N 41°09' W 072°14'8 7.6
2015-Jan-23 11:33N 41°15' W 072°08'6 6.4
2015-Jan-23 10:33N 41°21' W 072°06'  

Dump ship's entire track history